< Cyclone 201719 2017 Season Cyclone 201722 >
Cyclone 201720 (Blanche)
General InformationTrack Information on Google MapsDetailed Wind InformationList of All Images || ResourceGoogle EarthGE AnimationAtom FeedGeoJSON
Detalied Best Track (Time Zone = UTC)
Year Month Day Hour Lat. Long. Pressure (hPa) Wind (kt) Class Image Chart
2017 3 1 00 -8.9 138.5 1006 15 2 Image --
2017 3 1 06 -9.4 139.0 1003 15 2 Image --
2017 3 1 12 -9.2 138.5 1006 15 2 Image --
2017 3 1 18 -8.4 137.5 1004 15 2 Image --
2017 3 2 00 -8.0 135.6 1004 15 2 Image --
2017 3 2 06 -7.8 134.8 1003 15 2 Image --
2017 3 2 12 -7.7 134.2 1004 15 2 Image --
2017 3 2 18 -7.6 133.7 1002 15 2 Image --
2017 3 3 00 -7.7 133.4 1003 20 2 Image --
2017 3 3 06 -7.8 132.9 1001 25 2 Image --
2017 3 3 12 -7.9 133.1 1002 25 2 Image --
2017 3 3 18 -8.8 133.0 1001 25 2 Image --
2017 3 4 00 -9.5 132.4 1001 25 2 Image --
2017 3 4 06 -9.7 131.8 1000 25 2 Image --
2017 3 4 12 -10.3 131.4 1001 25 2 Image --
2017 3 4 18 -11.4 130.8 1000 30 2 Image --
2017 3 4 21 -11.6 130.5 998 30 2 Image --
2017 3 4 22 -11.7 130.3 996 35 3 Image --
2017 3 4 23 -11.8 130.1 994 35 3 Image --
2017 3 5 00 -11.7 130.0 994 35 3 Image --
2017 3 5 01 -11.6 129.9 996 30 2 Image --
2017 3 5 02 -11.7 129.9 995.667 30 0 Image --
2017 3 5 03 -11.8 129.9 995.333 30 0 Image --
2017 3 5 06 -12.1 129.7 995 30 2 Image --
2017 3 5 12 -12.5 129.1 994 40 3 Image --
2017 3 5 15 -12.8 128.6 991.333 43.3333 0 Image --
2017 3 5 18 -13.2 128.5 986 50 4 Image --
2017 3 6 00 -13.9 128.2 984 55 4 Image --
2017 3 6 01 -14.1 128.1 984.333 55 0 Image --
2017 3 6 02 -14.2 127.9 984.667 55 0 Image --
2017 3 6 03 -14.3 127.8 985 55 4 Image --
2017 3 6 04 -14.5 127.7 987.333 51.6667 0 Image --
2017 3 6 05 -14.6 127.6 989.667 48.3333 0 Image --
2017 3 6 06 -14.8 127.5 992 45 3 Image --
2017 3 6 09 -15.1 127.3 994 35 3 Image --
2017 3 6 12 -15.4 127.1 1000 30 2 Image --
< Cyclone 201719 2017 Season Cyclone 201722 >

Help